Time;durP1;ratioP1;P1;durP2;ratioP2;P2;SDS_P1;SDS_P2;PMS_P1;PMS_P2;Temp;Humidity;BMP_temperature;BMP_pressure;BME280_temperature;BME280_humidity;BME280_pressure;Samples;Min_cycle;Max_cycle;Signal;HPM_P1;HPM_P2
2023/12/10 00:00:19;;;;;;;0.30;0.30;;;;;;;1.74;88.45;97090.97;5065307;28;20106;-68
2023/12/10 00:02:46;;;;;;;0.30;0.30;;;;;;;1.69;88.64;97086.47;5065613;28;20335;-68
2023/12/10 00:05:12;;;;;;;0.30;0.30;;;;;;;1.65;88.70;97084.66;5066849;28;20068;-68
2023/12/10 00:07:39;;;;;;;0.30;0.30;;;;;;;1.64;88.04;97083.84;5066898;28;20048;-68
2023/12/10 00:10:07;;;;;;;0.30;0.30;;;;;;;1.54;88.20;97095.84;5066661;28;20056;-67
2023/12/10 00:12:33;;;;;;;0.30;0.30;;;;;;;1.63;87.73;97092.38;5066866;28;20057;-67
2023/12/10 00:15:01;;;;;;;0.30;0.30;;;;;;;1.17;87.39;97051.78;5066412;28;20060;-67
2023/12/10 00:17:27;;;;;;;0.30;0.30;;;;;;;1.58;88.44;97106.94;5066791;28;20519;-68
2023/12/10 00:19:54;;;;;;;0.30;0.30;;;;;;;1.67;87.70;97101.53;5066583;28;20130;-68
2023/12/10 00:22:22;;;;;;;0.30;0.30;;;;;;;1.69;87.60;97115.69;5064686;28;20057;-68
2023/12/10 00:24:49;;;;;;;0.30;0.30;;;;;;;1.70;87.54;97098.97;5066465;28;20055;-68
2023/12/10 00:27:16;;;;;;;0.30;0.30;;;;;;;1.75;87.94;97096.13;5082535;28;20491;-68
2023/12/10 00:29:43;;;;;;;0.38;0.38;;;;;;;1.46;87.66;97044.75;5086496;28;20048;-68
2023/12/10 00:32:09;;;;;;;0.30;0.30;;;;;;;1.42;87.73;97032.81;5086333;28;20525;-68
2023/12/10 00:34:36;;;;;;;0.40;0.40;;;;;;;1.84;88.07;97093.44;5084904;28;20052;-68
2023/12/10 00:37:03;;;;;;;0.30;0.30;;;;;;;1.58;87.89;97052.34;5084955;28;20080;-69
2023/12/10 00:39:30;;;;;;;0.30;0.30;;;;;;;1.74;87.79;97077.34;5086785;28;20052;-68
2023/12/10 00:41:57;;;;;;;0.30;0.30;;;;;;;1.87;88.12;97092.78;5086360;28;20105;-68
2023/12/10 00:44:24;;;;;;;0.30;0.30;;;;;;;1.89;87.68;97074.19;5086507;28;20051;-68
2023/12/10 00:46:51;;;;;;;0.30;0.30;;;;;;;1.93;88.13;97088.84;5072606;28;20067;-68
2023/12/10 00:49:18;;;;;;;0.30;0.30;;;;;;;1.36;88.52;96984.97;5086468;28;20135;-68
2023/12/10 00:51:45;;;;;;;0.30;0.30;;;;;;;2.01;88.53;97082.63;5084647;28;20496;-68
2023/12/10 00:54:12;;;;;;;0.30;0.30;;;;;;;2.05;88.15;97094.50;5074889;28;20056;-67
2023/12/10 00:56:42;;;;;;;0.30;0.30;;;;;;;2.02;87.88;97089.69;5076643;28;20491;-68
2023/12/10 00:59:09;;;;;;;0.30;0.30;;;;;;;2.08;87.57;97089.22;5065915;28;20594;-69
2023/12/10 01:01:36;;;;;;;0.40;0.40;;;;;;;1.97;87.46;97059.75;5064316;28;20056;-68
2023/12/10 01:04:03;;;;;;;0.40;0.40;;;;;;;1.65;88.45;97024.59;5065651;28;20062;-68
2023/12/10 01:06:30;;;;;;;0.30;0.30;;;;;;;2.00;87.93;97080.97;5065645;28;20080;-69
2023/12/10 01:08:57;;;;;;;0.35;0.35;;;;;;;1.97;87.54;97076.16;5065716;28;20052;-68
2023/12/10 01:11:24;;;;;;;0.30;0.30;;;;;;;2.05;87.77;97078.13;5065476;28;20056;-69
2023/12/10 01:13:50;;;;;;;0.30;0.30;;;;;;;1.24;87.79;96943.81;5065466;28;20047;-68
2023/12/10 01:16:17;;;;;;;0.30;0.30;;;;;;;2.11;87.62;97065.94;5080624;28;20067;-68
2023/12/10 01:18:44;;;;;;;0.30;0.30;;;;;;;2.16;88.25;97068.53;5064045;28;20051;-68
2023/12/10 01:21:11;;;;;;;0.30;0.30;;;;;;;1.68;88.11;97002.13;5063959;28;20461;-68
2023/12/10 01:23:39;;;;;;;0.35;0.35;;;;;;;1.81;87.73;96995.75;5065514;28;20084;-68
2023/12/10 01:26:12;;;;;;;0.38;0.38;;;;;;;1.95;87.68;97024.56;5069008;28;20054;-69
2023/12/10 01:28:39;;;;;;;0.35;0.35;;;;;;;1.77;87.29;97033.03;5085374;28;20127;-69
2023/12/10 01:31:06;;;;;;;0.30;0.30;;;;;;;1.70;87.37;96997.16;5084455;28;20067;-69
2023/12/10 01:33:33;;;;;;;0.30;0.30;;;;;;;1.98;87.12;97047.72;5084507;28;20059;-68
2023/12/10 01:36:00;;;;;;;0.30;0.30;;;;;;;1.80;87.26;97032.38;5085568;28;20048;-67
2023/12/10 01:38:27;;;;;;;0.35;0.35;;;;;;;1.97;86.98;97054.31;5084235;28;20083;-68
2023/12/10 01:40:54;;;;;;;0.40;0.40;;;;;;;2.11;87.09;97052.28;5085757;28;20060;-68
2023/12/10 01:43:21;;;;;;;0.30;0.30;;;;;;;2.16;85.17;97052.13;5085510;28;20059;-68
2023/12/10 01:45:50;;;;;;;0.30;0.30;;;;;;;1.96;86.17;97049.97;5085436;28;20055;-68
2023/12/10 01:48:21;;;;;;;0.30;0.30;;;;;;;1.95;86.80;97046.44;5084148;28;20048;-68
2023/12/10 01:50:49;;;;;;;0.30;0.30;;;;;;;1.74;86.15;97000.88;5084283;28;20059;-68
2023/12/10 01:53:16;;;;;;;0.40;0.40;;;;;;;1.88;86.50;97004.31;5083705;28;20511;-68
2023/12/10 01:55:44;;;;;;;0.30;0.30;;;;;;;2.09;86.20;97040.84;5084955;28;20384;-68
2023/12/10 01:58:11;;;;;;;0.30;0.30;;;;;;;2.10;86.79;97043.28;5083379;28;20063;-68
2023/12/10 02:00:39;;;;;;;0.30;0.30;;;;;;;2.07;86.53;97037.63;5083373;28;20109;-67
2023/12/10 02:03:07;;;;;;;0.40;0.40;;;;;;;1.98;86.65;97044.97;5085419;28;20064;-69
2023/12/10 02:05:33;;;;;;;0.30;0.30;;;;;;;2.08;86.78;97050.16;5083272;28;20056;-68
2023/12/10 02:08:00;;;;;;;0.30;0.30;;;;;;;1.79;87.04;96998.03;5085126;28;20075;-68
2023/12/10 02:10:27;;;;;;;0.30;0.30;;;;;;;2.10;86.93;97028.81;5082984;28;20131;-68
2023/12/10 02:12:55;;;;;;;0.30;0.30;;;;;;;2.07;86.42;97032.97;5084467;28;20522;-68
2023/12/10 02:15:22;;;;;;;0.30;0.30;;;;;;;1.69;86.52;96984.66;5083475;28;20051;-68
2023/12/10 02:17:49;;;;;;;0.30;0.30;;;;;;;2.20;87.52;97025.78;5084830;28;20292;-68
2023/12/10 02:20:17;;;;;;;0.30;0.30;;;;;;;2.23;86.89;97036.88;5084341;28;20068;-69
2023/12/10 02:22:52;;;;;;;0.30;0.30;;;;;;;2.21;86.82;97005.53;5082750;28;20084;-68
2023/12/10 02:25:48;;;;;;;0.30;0.30;;;;;;;1.70;85.28;96923.44;5084538;28;20052;-68
2023/12/10 02:28:22;;;;;;;0.30;0.30;;;;;;;1.84;86.34;97000.59;5068018;28;20443;-68
2023/12/10 02:30:51;;;;;;;0.30;0.30;;;;;;;1.49;89.89;97016.81;5063435;28;20098;-68
2023/12/10 02:33:18;;;;;;;0.40;0.40;;;;;;;1.65;90.47;97009.03;5063126;28;20431;-68
2023/12/10 02:35:45;;;;;;;0.40;0.40;;;;;;;1.86;90.01;97012.00;5064569;28;20228;-68
2023/12/10 02:38:12;;;;;;;0.30;0.30;;;;;;;1.98;89.52;97020.41;5064478;28;20045;-68
2023/12/10 02:40:39;;;;;;;0.30;0.30;;;;;;;2.13;88.39;97014.50;5064031;28;20143;-68
2023/12/10 02:43:06;;;;;;;0.30;0.30;;;;;;;2.10;88.74;97006.97;5063955;28;20079;-68
2023/12/10 02:45:33;;;;;;;0.30;0.30;;;;;;;1.93;89.32;97036.94;5062923;28;20535;-67
2023/12/10 02:48:00;;;;;;;0.30;0.30;;;;;;;1.72;88.98;96932.13;5062861;28;20503;-69
2023/12/10 02:50:27;;;;;;;0.30;0.30;;;;;;;2.39;89.16;97018.09;5064234;28;20158;-68
2023/12/10 02:52:53;;;;;;;0.30;0.30;;;;;;;1.94;88.68;96940.22;5064230;28;20056;-68
2023/12/10 02:55:20;;;;;;;0.30;0.30;;;;;;;2.00;88.74;96963.53;5064383;28;20060;-67
2023/12/10 02:57:47;;;;;;;0.40;0.40;;;;;;;2.21;87.71;97009.09;5062998;28;20537;-67
2023/12/10 03:00:15;;;;;;;0.30;0.30;;;;;;;2.30;87.89;97011.81;5063831;28;20076;-67
2023/12/10 03:02:43;;;;;;;0.30;0.30;;;;;;;2.29;87.91;97018.41;5063863;28;20099;-68
2023/12/10 03:05:09;;;;;;;0.35;0.35;;;;;;;2.42;88.03;97012.03;5062486;28;20048;-67
2023/12/10 03:07:36;;;;;;;0.30;0.30;;;;;;;2.47;87.87;97026.34;5062487;28;20084;-67
2023/12/10 03:10:04;;;;;;;0.35;0.35;;;;;;;2.17;88.03;96960.84;5063527;28;20062;-68
2023/12/10 03:12:30;;;;;;;0.35;0.35;;;;;;;2.57;87.96;97006.09;5062135;28;20064;-68
2023/12/10 03:14:58;;;;;;;0.30;0.30;;;;;;;2.60;87.26;97008.19;5062071;28;20178;-68
2023/12/10 03:17:24;;;;;;;0.30;0.30;;;;;;;2.29;86.59;96969.25;5063349;28;20534;-67
2023/12/10 03:19:51;;;;;;;0.40;0.40;;;;;;;2.46;87.26;96997.41;5064114;28;20049;-67
2023/12/10 03:22:18;;;;;;;0.40;0.40;;;;;;;2.57;87.62;97008.81;5065789;28;20090;-67
2023/12/10 03:24:45;;;;;;;0.30;0.30;;;;;;;2.56;87.12;97072.84;5065892;28;20057;-67
2023/12/10 03:27:12;;;;;;;0.40;0.40;;;;;;;2.65;87.02;97027.16;5079812;28;20549;-67
2023/12/10 03:29:39;;;;;;;0.40;0.40;;;;;;;2.67;87.08;97024.94;5087881;28;20044;-67
2023/12/10 03:32:06;;;;;;;0.38;0.38;;;;;;;2.69;86.90;97028.13;5087810;28;20057;-67
2023/12/10 03:34:32;;;;;;;0.30;0.30;;;;;;;2.68;87.36;97026.53;5087832;28;20074;-67
2023/12/10 03:37:00;;;;;;;0.40;0.40;;;;;;;2.70;87.71;97024.28;5087828;28;20071;-68
2023/12/10 03:39:27;;;;;;;0.40;0.40;;;;;;;2.24;87.61;96955.72;5086053;28;20146;-67
2023/12/10 03:41:53;;;;;;;0.40;0.40;;;;;;;2.64;87.61;97025.56;5086078;28;20075;-68
2023/12/10 03:44:20;;;;;;;0.30;0.30;;;;;;;2.53;87.88;97016.06;5085888;28;20147;-67
2023/12/10 03:46:47;;;;;;;0.30;0.30;;;;;;;2.39;86.94;96990.78;5085984;28;20138;-67
2023/12/10 03:49:14;;;;;;;0.30;0.30;;;;;;;2.71;87.11;97039.56;5087438;28;20423;-67
2023/12/10 03:51:41;;;;;;;0.30;0.30;;;;;;;2.69;86.46;97044.53;5087400;28;20146;-68
2023/12/10 03:54:08;;;;;;;0.40;0.40;;;;;;;2.65;86.51;97049.84;5085990;28;20180;-68
2023/12/10 03:56:34;;;;;;;0.38;0.38;;;;;;;2.33;86.95;97013.91;5085480;28;20083;-67
2023/12/10 03:59:01;;;;;;;0.30;0.30;;;;;;;2.48;87.97;97044.34;5086129;28;20142;-67
2023/12/10 04:01:28;;;;;;;0.40;0.40;;;;;;;2.56;88.74;97034.56;5087083;28;20468;-67
2023/12/10 04:03:55;;;;;;;0.38;0.38;;;;;;;1.85;88.86;96925.75;5086857;28;20047;-67
2023/12/10 04:06:22;;;;;;;0.40;0.40;;;;;;;2.57;89.81;97025.22;5086990;28;20052;-67
2023/12/10 04:08:49;;;;;;;0.40;0.40;;;;;;;2.72;89.51;97038.41;5086925;28;20467;-67
2023/12/10 04:11:23;;;;;;;0.40;0.40;;;;;;;2.81;89.70;97039.25;5085275;28;20090;-70
2023/12/10 04:13:49;;;;;;;0.30;0.30;;;;;;;2.69;89.39;97022.66;5085321;28;20101;-68
2023/12/10 04:16:45;;;;;;;0.40;0.40;;;;;;;3.02;87.61;97032.00;5086608;28;20044;-67
2023/12/10 04:19:12;;;;;;;0.40;0.40;;;;;;;2.90;87.88;97029.94;5076547;28;20058;-67
2023/12/10 04:21:39;;;;;;;0.38;0.38;;;;;;;2.87;88.07;97035.22;5084730;28;20055;-68
2023/12/10 04:24:06;;;;;;;0.30;0.30;;;;;;;2.91;87.51;97034.25;5085216;28;20044;-67
2023/12/10 04:26:33;;;;;;;0.38;0.38;;;;;;;2.56;87.72;96988.09;5086508;28;20048;-67
2023/12/10 04:29:00;;;;;;;0.30;0.30;;;;;;;2.26;87.18;96948.03;5086561;28;20158;-68
2023/12/10 04:31:27;;;;;;;0.40;0.40;;;;;;;1.31;87.23;96807.75;5084786;28;20052;-68
2023/12/10 04:33:54;;;;;;;0.40;0.40;;;;;;;2.73;87.48;97012.69;5086189;28;20052;-68
2023/12/10 04:36:21;;;;;;;0.30;0.30;;;;;;;2.34;87.51;96958.16;5085653;28;20066;-67
2023/12/10 04:38:48;;;;;;;0.40;0.40;;;;;;;2.36;86.88;96958.63;5085393;28;20084;-68
2023/12/10 04:41:15;;;;;;;0.32;0.32;;;;;;;2.41;87.12;96972.13;5085145;28;20062;-68
2023/12/10 04:43:42;;;;;;;0.40;0.40;;;;;;;2.28;87.27;96934.81;5086212;28;20521;-68
2023/12/10 04:46:09;;;;;;;0.35;0.35;;;;;;;2.73;87.51;97007.22;5085407;28;20054;-67
2023/12/10 04:48:36;;;;;;;0.30;0.30;;;;;;;2.79;87.56;97006.75;5086425;28;20059;-68
2023/12/10 04:51:03;;;;;;;0.40;0.40;;;;;;;2.78;87.25;97009.81;5084781;28;20899;-68
2023/12/10 04:53:30;;;;;;;0.35;0.35;;;;;;;2.77;87.66;97013.66;5086426;28;20060;-68
2023/12/10 04:55:56;;;;;;;0.30;0.30;;;;;;;2.54;88.69;97006.72;5086188;28;20075;-67
2023/12/10 04:58:23;;;;;;;0.30;0.30;;;;;;;2.71;88.07;97006.75;5086820;28;20422;-67
2023/12/10 05:00:51;;;;;;;0.30;0.30;;;;;;;2.66;88.24;97004.16;5084744;28;20066;-67
2023/12/10 05:03:18;;;;;;;0.30;0.30;;;;;;;2.69;88.70;97000.78;5084518;28;20054;-67
2023/12/10 05:05:45;;;;;;;0.40;0.40;;;;;;;2.73;89.39;97001.75;5086220;28;20059;-68
2023/12/10 05:08:12;;;;;;;0.30;0.30;;;;;;;2.63;88.93;96996.59;5084508;28;20059;-66
2023/12/10 05:10:38;;;;;;;0.40;0.40;;;;;;;2.83;88.50;96991.31;5084285;28;20048;-68
2023/12/10 05:13:06;;;;;;;0.30;0.30;;;;;;;2.28;88.30;96919.25;5085989;28;20056;-67
2023/12/10 05:15:34;;;;;;;0.30;0.30;;;;;;;2.76;88.07;97003.84;5085692;28;20060;-68
2023/12/10 05:18:02;;;;;;;0.40;0.40;;;;;;;2.79;88.44;97005.94;5085878;28;20528;-68
2023/12/10 05:20:30;;;;;;;0.30;0.30;;;;;;;2.91;87.36;97004.16;5085414;28;20056;-67
2023/12/10 05:22:59;;;;;;;0.30;0.30;;;;;;;2.94;87.31;97008.22;5083803;28;20071;-68
2023/12/10 05:25:30;;;;;;;0.40;0.40;;;;;;;2.52;87.17;96978.91;5085519;28;20055;-67
2023/12/10 05:27:58;;;;;;;0.30;0.30;;;;;;;2.91;88.26;97008.81;5085431;28;20056;-68
2023/12/10 05:30:25;;;;;;;0.38;0.38;;;;;;;2.11;89.12;96973.03;5084123;28;20131;-68
2023/12/10 05:32:52;;;;;;;0.30;0.30;;;;;;;1.58;95.12;97014.94;5083897;28;20135;-67
2023/12/10 05:35:19;;;;;;;0.30;0.30;;;;;;;1.42;95.92;96978.25;5083733;28;20913;-67
2023/12/10 05:37:46;;;;;;;0.30;0.30;;;;;;;1.85;95.56;97007.69;5085391;28;20059;-67
2023/12/10 05:40:13;;;;;;;0.40;0.40;;;;;;;1.61;96.51;97029.06;5083537;28;20442;-67
2023/12/10 05:42:39;;;;;;;0.30;0.30;;;;;;;1.74;96.79;97022.72;5084022;28;20486;-67
2023/12/10 05:45:07;;;;;;;0.30;0.30;;;;;;;1.55;97.49;97029.22;5082816;28;20066;-67
2023/12/10 05:47:34;;;;;;;0.30;0.30;;;;;;;1.58;97.77;97050.41;5083684;28;20448;-67
2023/12/10 05:50:01;;;;;;;0.30;0.30;;;;;;;1.36;97.04;96993.13;5083902;28;20139;-67
2023/12/10 05:52:28;;;;;;;0.30;0.30;;;;;;;1.90;96.67;97019.25;5082156;28;20477;-67
2023/12/10 05:54:55;;;;;;;0.30;0.30;;;;;;;2.20;96.11;97028.50;5081892;28;20056;-66
2023/12/10 05:57:22;;;;;;;0.40;0.40;;;;;;;2.47;94.97;97020.88;5080686;28;20580;-67
2023/12/10 05:59:49;;;;;;;0.32;0.32;;;;;;;2.43;93.55;97019.91;5061930;28;20127;-67
2023/12/10 06:02:16;;;;;;;0.38;0.38;;;;;;;2.53;93.04;97024.28;5061775;28;20044;-68
2023/12/10 06:04:43;;;;;;;0.30;0.30;;;;;;;2.21;91.72;96953.63;5062748;28;20518;-67
2023/12/10 06:07:10;;;;;;;0.40;0.40;;;;;;;2.49;90.47;96979.53;5064623;28;20529;-67
2023/12/10 06:09:36;;;;;;;0.40;0.40;;;;;;;2.79;90.38;97027.81;5063127;28;20048;-67
2023/12/10 06:12:04;;;;;;;0.30;0.30;;;;;;;2.96;89.33;97027.81;5064771;28;20102;-67
2023/12/10 06:14:30;;;;;;;0.40;0.40;;;;;;;2.60;89.65;96973.44;5062952;28;20049;-67
2023/12/10 06:16:57;;;;;;;0.40;0.40;;;;;;;3.07;89.43;97042.78;5064212;28;20485;-68
2023/12/10 06:19:24;;;;;;;0.40;0.40;;;;;;;2.95;88.87;97001.59;5079902;28;20048;-67
2023/12/10 06:21:51;;;;;;;0.30;0.30;;;;;;;2.67;89.00;96964.78;5062510;28;20230;-67
2023/12/10 06:24:18;;;;;;;0.30;0.30;;;;;;;3.06;88.94;97028.31;5063118;28;20052;-68
2023/12/10 06:26:45;;;;;;;0.40;0.40;;;;;;;3.22;88.39;97033.28;5068489;28;20051;-68
2023/12/10 06:29:12;;;;;;;0.40;0.40;;;;;;;2.30;88.61;96936.13;5085047;28;20087;-68
2023/12/10 06:31:38;;;;;;;0.40;0.40;;;;;;;2.96;88.97;97038.75;5083049;28;20538;-68
2023/12/10 06:34:05;;;;;;;0.40;0.40;;;;;;;2.36;88.69;96975.03;5084604;28;20138;-68
2023/12/10 06:36:32;;;;;;;0.30;0.30;;;;;;;2.79;89.52;97038.75;5082969;28;20072;-68
2023/12/10 06:38:59;;;;;;;0.38;0.38;;;;;;;2.99;89.26;97044.41;5084745;28;20097;-68
2023/12/10 06:41:26;;;;;;;0.30;0.30;;;;;;;2.83;87.78;96987.75;5084658;28;20174;-68
2023/12/10 06:43:53;;;;;;;0.30;0.30;;;;;;;3.15;88.86;97039.25;5084123;28;20067;-68
2023/12/10 06:46:19;;;;;;;0.40;0.40;;;;;;;3.06;88.89;97039.28;5083149;28;20151;-68
2023/12/10 06:48:46;;;;;;;0.30;0.30;;;;;;;2.67;88.17;96992.13;5082789;28;20048;-68
2023/12/10 06:51:13;;;;;;;0.40;0.40;;;;;;;2.67;89.31;96994.84;5084574;28;20055;-68
2023/12/10 06:53:41;;;;;;;0.40;0.40;;;;;;;3.04;89.01;97047.00;5084114;28;20051;-68
2023/12/10 06:56:08;;;;;;;0.40;0.40;;;;;;;2.91;89.98;97052.59;5086864;28;20077;-68
2023/12/10 06:58:35;;;;;;;0.40;0.40;;;;;;;3.01;89.32;97047.63;5087071;28;20506;-69
2023/12/10 07:01:05;;;;;;;0.40;0.40;;;;;;;3.21;89.09;97070.78;5088463;28;20623;-69
2023/12/10 07:03:33;;;;;;;0.38;0.38;;;;;;;3.30;88.37;97055.19;5089277;28;20168;-69
2023/12/10 07:06:03;;;;;;;0.30;0.30;;;;;;;2.28;90.62;97016.78;5088490;28;20087;-68
2023/12/10 07:08:31;;;;;;;0.40;0.40;;;;;;;2.97;90.07;97065.78;5087243;28;20052;-68
2023/12/10 07:10:58;;;;;;;0.40;0.40;;;;;;;3.24;90.48;97066.63;5088015;28;20048;-71
2023/12/10 07:13:24;;;;;;;0.40;0.40;;;;;;;3.44;89.61;97074.97;5086396;28;20062;-67
2023/12/10 07:15:51;;;;;;;0.40;0.40;;;;;;;3.15;87.60;97091.25;5087748;28;20048;-66
2023/12/10 07:18:18;;;;;;;0.40;0.40;;;;;;;3.13;88.41;97088.00;5088102;28;20051;-67
2023/12/10 07:20:45;;;;;;;0.40;0.40;;;;;;;3.43;87.71;97078.03;5087768;28;20060;-67
2023/12/10 07:23:12;;;;;;;0.40;0.40;;;;;;;3.14;86.07;97032.19;5086138;28;20067;-67
2023/12/10 07:25:39;;;;;;;0.45;0.45;;;;;;;2.57;87.84;97019.75;5086222;28;20060;-68
2023/12/10 07:28:06;;;;;;;0.30;0.30;;;;;;;2.21;91.46;97043.78;5083033;28;20063;-67
2023/12/10 07:30:32;;;;;;;0.40;0.40;;;;;;;2.99;90.30;97093.66;5067342;28;20049;-68
2023/12/10 07:32:59;;;;;;;0.30;0.30;;;;;;;2.89;90.10;97071.28;5067858;28;20057;-67
2023/12/10 07:35:26;;;;;;;0.30;0.30;;;;;;;2.78;91.14;97092.66;5066998;28;20053;-67
2023/12/10 07:37:53;;;;;;;0.30;0.30;;;;;;;2.98;90.89;97069.34;5067037;28;20064;-67
2023/12/10 07:40:20;;;;;;;0.30;0.30;;;;;;;3.06;90.97;97104.13;5067305;28;20056;-67
2023/12/10 07:42:47;;;;;;;0.35;0.35;;;;;;;3.07;91.05;97111.19;5067620;28;20059;-68
2023/12/10 07:45:13;;;;;;;0.30;0.30;;;;;;;2.32;94.76;97116.16;5067698;28;20056;-67
2023/12/10 07:47:40;;;;;;;0.30;0.30;;;;;;;2.11;98.63;97117.81;5065871;28;20138;-67
2023/12/10 07:50:08;;;;;;;0.30;0.30;;;;;;;1.94;100.00;97115.84;5066893;28;20140;-67
2023/12/10 07:52:34;;;;;;;0.30;0.30;;;;;;;1.79;100.00;97107.25;5067352;28;20052;-68
2023/12/10 07:55:02;;;;;;;0.30;0.30;;;;;;;2.04;100.00;97109.31;5067112;28;20547;-68
2023/12/10 07:57:30;;;;;;;0.30;0.30;;;;;;;2.05;100.00;97105.44;5066002;28;20055;-68
2023/12/10 07:59:56;;;;;;;0.32;0.32;;;;;;;2.53;100.00;97111.75;5065520;28;20613;-69
2023/12/10 08:02:23;;;;;;;0.30;0.30;;;;;;;2.43;97.28;97101.09;5066734;28;20040;-67
2023/12/10 08:04:50;;;;;;;0.30;0.30;;;;;;;2.04;99.83;97114.75;5065437;28;20052;-67
2023/12/10 08:07:17;;;;;;;0.30;0.30;;;;;;;1.68;99.35;97032.16;5081280;28;20057;-67
2023/12/10 08:09:44;;;;;;;0.30;0.30;;;;;;;2.48;98.25;97100.94;5066671;28;20051;-67
2023/12/10 08:12:10;;;;;;;0.30;0.30;;;;;;;2.00;97.97;97073.59;5064840;28;20592;-67
2023/12/10 08:14:38;;;;;;;0.30;0.30;;;;;;;2.44;97.62;97076.19;5066581;28;20060;-68
2023/12/10 08:17:04;;;;;;;0.30;0.30;;;;;;;2.58;96.15;97103.38;5065248;28;20064;-68
2023/12/10 08:19:31;;;;;;;0.30;0.30;;;;;;;2.56;96.39;97135.72;5065350;28;20048;-67
2023/12/10 08:21:58;;;;;;;0.32;0.32;;;;;;;2.87;94.94;97134.50;5066525;28;20456;-68
2023/12/10 08:24:26;;;;;;;0.30;0.30;;;;;;;3.10;93.23;97127.78;5066500;28;20157;-67
2023/12/10 08:26:54;;;;;;;0.40;0.40;;;;;;;3.10;94.43;97126.97;5072178;28;20048;-66
2023/12/10 08:29:21;;;;;;;0.40;0.40;;;;;;;3.36;93.11;97119.59;5084696;28;20404;-67
2023/12/10 08:31:48;;;;;;;0.40;0.40;;;;;;;3.27;92.82;97120.72;5085152;28;20055;-67
2023/12/10 08:34:14;;;;;;;0.40;0.40;;;;;;;3.02;89.95;97062.09;5084715;28;20055;-67
2023/12/10 08:36:42;;;;;;;0.30;0.30;;;;;;;3.21;89.55;97103.63;5086460;28;20047;-69
2023/12/10 08:39:08;;;;;;;0.40;0.40;;;;;;;3.47;87.78;97120.88;5085202;28;20055;-68
2023/12/10 08:41:35;;;;;;;0.40;0.40;;;;;;;3.38;86.44;97076.28;5084327;28;20491;-68
2023/12/10 08:44:02;;;;;;;0.40;0.40;;;;;;;3.07;88.48;97113.94;5084782;28;20382;-68
2023/12/10 08:46:29;;;;;;;0.40;0.40;;;;;;;3.42;88.36;97096.41;5085079;28;20059;-68
2023/12/10 08:48:56;;;;;;;0.40;0.40;;;;;;;3.76;86.97;97107.28;5086508;28;20048;-69
2023/12/10 08:51:23;;;;;;;0.40;0.40;;;;;;;3.38;88.17;97094.63;5084737;28;20557;-68
2023/12/10 08:53:50;;;;;;;0.30;0.30;;;;;;;3.88;87.11;97104.72;5082855;28;20083;-69
2023/12/10 08:56:17;;;;;;;0.38;0.38;;;;;;;4.18;85.80;97097.38;5084868;28;20043;-69
2023/12/10 08:58:45;;;;;;;0.50;0.50;;;;;;;3.90;85.03;97047.66;5084922;28;20133;-69
2023/12/10 09:01:12;;;;;;;0.40;0.40;;;;;;;3.67;85.74;97101.03;5085734;28;20055;-70
2023/12/10 09:03:42;;;;;;;0.40;0.40;;;;;;;3.61;86.20;97055.78;5086054;28;20127;-69
2023/12/10 09:06:09;;;;;;;0.40;0.40;;;;;;;3.88;85.98;97043.63;5085952;28;20071;-69
2023/12/10 09:08:36;;;;;;;0.40;0.40;;;;;;;4.24;85.58;97096.84;5085403;28;20060;-69
2023/12/10 09:11:04;;;;;;;0.50;0.50;;;;;;;4.26;84.45;97053.47;5085905;28;20139;-69
2023/12/10 09:13:32;;;;;;;0.40;0.40;;;;;;;4.28;83.57;97069.59;5084102;28;20056;-69
2023/12/10 09:15:59;;;;;;;0.40;0.40;;;;;;;4.41;84.69;97072.09;5083988;28;20056;-69
2023/12/10 09:18:26;;;;;;;0.40;0.40;;;;;;;4.49;83.79;97043.84;5084020;28;20052;-68
2023/12/10 09:20:54;;;;;;;0.50;0.50;;;;;;;4.83;82.69;97075.75;5085085;28;20577;-69
2023/12/10 09:23:21;;;;;;;0.50;0.50;;;;;;;4.90;82.24;97039.56;5085487;28;20078;-69
2023/12/10 09:25:48;;;;;;;0.50;0.50;;;;;;;4.91;81.34;97061.19;5085181;28;20157;-69
2023/12/10 09:28:15;;;;;;;0.40;0.40;;;;;;;5.17;81.03;97047.25;5080613;28;20060;-69
2023/12/10 09:30:42;;;;;;;0.50;0.50;;;;;;;5.34;81.25;97041.63;5063764;28;20049;-69
2023/12/10 09:33:10;;;;;;;0.50;0.50;;;;;;;4.53;80.40;96885.72;5064917;28;20056;-69
2023/12/10 09:35:37;;;;;;;0.45;0.45;;;;;;;5.32;80.02;96980.72;5063609;28;20056;-68
2023/12/10 09:38:04;;;;;;;0.50;0.50;;;;;;;5.72;78.87;97031.22;5063647;28;20499;-69
2023/12/10 09:40:33;;;;;;;0.50;0.50;;;;;;;5.90;78.45;97027.97;5065594;28;20062;-69
2023/12/10 09:43:01;;;;;;;0.50;0.50;;;;;;;5.96;77.91;97025.78;5065255;28;20510;-69
2023/12/10 09:45:28;;;;;;;0.50;0.50;;;;;;;5.55;76.04;96937.97;5063158;28;20546;-69
2023/12/10 09:47:55;;;;;;;0.60;0.60;;;;;;;6.12;76.70;97018.50;5063226;28;20057;-69
2023/12/10 09:50:23;;;;;;;0.50;0.50;;;;;;;6.34;75.10;97022.78;5064787;28;20053;-69
2023/12/10 09:52:50;;;;;;;0.60;0.60;;;;;;;6.35;74.50;97011.41;5064979;28;20071;-69
2023/12/10 09:55:17;;;;;;;0.50;0.50;;;;;;;5.86;76.01;96976.78;5064631;28;20139;-68
2023/12/10 09:57:44;;;;;;;0.50;0.50;;;;;;;6.32;77.13;97001.09;5064538;28;20053;-68
2023/12/10 10:00:11;;;;;;;0.60;0.60;;;;;;;6.44;74.54;96997.53;5063499;28;20048;-69
2023/12/10 10:02:39;;;;;;;0.60;0.60;;;;;;;6.43;75.41;96999.50;5064748;28;20063;-70
2023/12/10 10:05:09;;;;;;;0.60;0.60;;;;;;;6.25;74.24;96973.38;5064327;28;20048;-68
2023/12/10 10:07:36;;;;;;;0.60;0.60;;;;;;;6.47;74.52;96994.09;5063442;28;20048;-69
2023/12/10 10:10:05;;;;;;;0.60;0.60;;;;;;;6.37;73.54;96981.59;5064541;28;20053;-68
2023/12/10 10:12:33;;;;;;;0.60;0.60;;;;;;;6.24;73.71;96971.75;5064560;28;20052;-69
2023/12/10 10:15:01;;;;;;;0.60;0.60;;;;;;;6.47;74.60;96981.16;5080037;28;20079;-69
2023/12/10 10:17:29;;;;;;;0.57;0.57;;;;;;;6.58;73.03;96986.97;5064891;28;20057;-68
2023/12/10 10:19:58;;;;;;;0.60;0.60;;;;;;;6.71;72.59;96975.63;5064481;28;20439;-69
2023/12/10 10:22:26;;;;;;;0.60;0.60;;;;;;;6.61;71.88;96926.53;5062900;28;20080;-69
2023/12/10 10:24:54;;;;;;;0.60;0.60;;;;;;;7.12;72.06;96961.50;5064425;28;20068;-69
2023/12/10 10:27:21;;;;;;;0.60;0.60;;;;;;;7.22;70.29;96960.97;5071697;28;20055;-69
2023/12/10 10:29:52;;;;;;;0.60;0.60;;;;;;;7.02;70.39;96959.22;5083630;28;20439;-70
2023/12/10 10:32:21;;;;;;;0.50;0.50;;;;;;;6.55;69.62;96877.59;5083120;28;20058;-68
2023/12/10 10:34:49;;;;;;;0.60;0.60;;;;;;;7.05;69.30;96960.50;5084508;28;20056;-69
2023/12/10 10:37:17;;;;;;;0.60;0.60;;;;;;;7.09;69.05;96951.19;5082666;28;20679;-68
2023/12/10 10:39:45;;;;;;;0.60;0.60;;;;;;;6.95;69.53;96949.97;5084749;28;20079;-71
2023/12/10 10:42:12;;;;;;;0.70;0.70;;;;;;;7.00;69.11;96950.50;5083012;28;20144;-69
2023/12/10 10:44:39;;;;;;;0.60;0.60;;;;;;;6.61;71.17;96888.03;5084778;28;20059;-69
2023/12/10 10:47:07;;;;;;;0.60;0.60;;;;;;;6.17;72.08;96913.78;5084345;28;20060;-68
2023/12/10 10:49:44;;;;;;;0.60;0.60;;;;;;;6.08;73.40;96940.59;5084376;28;20067;-68
2023/12/10 10:52:33;;;;;;;0.60;0.60;;;;;;;6.31;72.53;96921.69;5084315;28;20503;-68
2023/12/10 10:55:02;;;;;;;0.50;0.50;;;;;;;6.16;71.53;96859.94;5084205;28;20176;-69
2023/12/10 10:57:36;;;;;;;0.60;0.60;;;;;;;6.20;72.43;96893.06;5082960;28;20412;-72
2023/12/10 11:00:18;;;;;;;0.60;0.60;;;;;;;6.69;71.53;96930.31;5082896;28;20298;-69
2023/12/10 11:02:54;;;;;;;0.57;0.57;;;;;;;6.11;71.00;96835.41;5082740;28;20048;-69
2023/12/10 11:05:31;;;;;;;0.60;0.60;;;;;;;6.72;71.86;96930.41;5082642;28;20135;-69
2023/12/10 11:07:59;;;;;;;0.60;0.60;;;;;;;6.65;71.60;96921.97;5084247;28;20142;-69
2023/12/10 11:10:26;;;;;;;0.60;0.60;;;;;;;6.50;71.90;96919.91;5082308;28;20438;-69
2023/12/10 11:12:54;;;;;;;0.68;0.68;;;;;;;6.66;71.47;96922.75;5082804;28;20444;-69
2023/12/10 11:15:23;;;;;;;0.60;0.60;;;;;;;6.65;71.31;96888.94;5082717;28;20052;-69
2023/12/10 11:17:59;;;;;;;0.60;0.60;;;;;;;6.91;71.82;96908.56;5084610;28;20052;-69
2023/12/10 11:20:44;;;;;;;0.60;0.60;;;;;;;7.06;70.18;96904.25;5083048;28;20090;-70
2023/12/10 11:23:14;;;;;;;0.60;0.60;;;;;;;7.02;70.36;96893.16;5084044;28;20059;-69
2023/12/10 11:25:41;;;;;;;0.70;0.70;;;;;;;6.74;70.92;96870.31;5082628;28;20059;-69
2023/12/10 11:28:14;;;;;;;0.60;0.60;;;;;;;7.00;71.03;96884.41;5082870;28;20516;-70
2023/12/10 11:30:43;;;;;;;0.60;0.60;;;;;;;7.04;70.79;96887.28;5082358;28;20083;-68
2023/12/10 11:33:15;;;;;;;0.60;0.60;;;;;;;7.32;69.71;96894.38;5082563;28;20079;-69
2023/12/10 11:35:42;;;;;;;0.60;0.60;;;;;;;7.45;69.92;96879.38;5083830;28;20056;-69
2023/12/10 11:38:09;;;;;;;0.68;0.68;;;;;;;7.12;67.95;96831.25;5082845;28;20052;-71
2023/12/10 11:40:37;;;;;;;0.60;0.60;;;;;;;7.40;67.25;96820.97;5083735;28;20455;-71
2023/12/10 11:43:08;;;;;;;0.60;0.60;;;;;;;7.74;66.10;96884.44;5086074;28;20055;-70